sensor_id;sensor_type;location;lat;lon;timestamp;P1;durP1;ratioP1;P2;durP2;ratioP2
18378;SDS011;27025;51.986;5.984;2023-02-28T00:02:20;5.97;;;4.78;;
18378;SDS011;27025;51.986;5.984;2023-02-28T00:04:46;6.75;;;4.80;;
18378;SDS011;27025;51.986;5.984;2023-02-28T00:07:18;6.93;;;4.57;;
18378;SDS011;27025;51.986;5.984;2023-02-28T00:09:44;6.47;;;4.40;;
18378;SDS011;27025;51.986;5.984;2023-02-28T00:12:10;6.33;;;4.40;;
18378;SDS011;27025;51.986;5.984;2023-02-28T00:14:36;6.45;;;4.55;;
18378;SDS011;27025;51.986;5.984;2023-02-28T00:17:02;6.40;;;4.30;;
18378;SDS011;27025;51.986;5.984;2023-02-28T00:19:28;5.88;;;4.38;;
18378;SDS011;27025;51.986;5.984;2023-02-28T00:21:54;6.32;;;4.32;;
18378;SDS011;27025;51.986;5.984;2023-02-28T00:24:20;6.10;;;4.45;;
18378;SDS011;27025;51.986;5.984;2023-02-28T00:26:46;6.22;;;4.45;;
18378;SDS011;27025;51.986;5.984;2023-02-28T00:29:12;7.18;;;4.72;;
18378;SDS011;27025;51.986;5.984;2023-02-28T00:31:38;6.07;;;4.45;;
18378;SDS011;27025;51.986;5.984;2023-02-28T00:34:04;7.88;;;4.40;;
18378;SDS011;27025;51.986;5.984;2023-02-28T00:36:30;6.28;;;4.55;;
18378;SDS011;27025;51.986;5.984;2023-02-28T00:38:56;6.82;;;4.53;;
18378;SDS011;27025;51.986;5.984;2023-02-28T00:41:22;5.32;;;4.38;;
18378;SDS011;27025;51.986;5.984;2023-02-28T00:43:48;6.15;;;4.55;;
18378;SDS011;27025;51.986;5.984;2023-02-28T00:46:14;6.80;;;4.63;;
18378;SDS011;27025;51.986;5.984;2023-02-28T00:48:40;6.50;;;4.40;;
18378;SDS011;27025;51.986;5.984;2023-02-28T00:51:06;7.65;;;4.88;;
18378;SDS011;27025;51.986;5.984;2023-02-28T00:53:32;6.88;;;4.65;;
18378;SDS011;27025;51.986;5.984;2023-02-28T00:55:58;6.67;;;4.73;;
18378;SDS011;27025;51.986;5.984;2023-02-28T00:58:24;6.63;;;4.72;;
18378;SDS011;27025;51.986;5.984;2023-02-28T01:00:53;6.38;;;4.70;;
18378;SDS011;27025;51.986;5.984;2023-02-28T01:03:19;6.25;;;4.70;;
18378;SDS011;27025;51.986;5.984;2023-02-28T01:05:46;6.43;;;4.75;;
18378;SDS011;27025;51.986;5.984;2023-02-28T01:08:12;6.72;;;4.60;;
18378;SDS011;27025;51.986;5.984;2023-02-28T01:10:44;6.50;;;4.87;;
18378;SDS011;27025;51.986;5.984;2023-02-28T01:13:11;8.02;;;5.00;;
18378;SDS011;27025;51.986;5.984;2023-02-28T01:15:37;6.80;;;4.70;;
18378;SDS011;27025;51.986;5.984;2023-02-28T01:18:04;7.50;;;4.80;;
18378;SDS011;27025;51.986;5.984;2023-02-28T01:20:30;5.90;;;4.72;;
18378;SDS011;27025;51.986;5.984;2023-02-28T01:22:56;6.38;;;4.63;;
18378;SDS011;27025;51.986;5.984;2023-02-28T01:25:22;6.80;;;4.88;;
18378;SDS011;27025;51.986;5.984;2023-02-28T01:27:48;6.03;;;4.75;;
18378;SDS011;27025;51.986;5.984;2023-02-28T01:30:14;7.15;;;4.93;;
18378;SDS011;27025;51.986;5.984;2023-02-28T01:32:40;6.82;;;5.10;;
18378;SDS011;27025;51.986;5.984;2023-02-28T01:35:06;7.47;;;4.90;;
18378;SDS011;27025;51.986;5.984;2023-02-28T01:37:32;6.40;;;4.82;;
18378;SDS011;27025;51.986;5.984;2023-02-28T01:39:58;7.18;;;4.90;;
18378;SDS011;27025;51.986;5.984;2023-02-28T01:42:24;7.18;;;4.65;;
18378;SDS011;27025;51.986;5.984;2023-02-28T01:44:55;6.85;;;4.75;;
18378;SDS011;27025;51.986;5.984;2023-02-28T01:47:23;6.15;;;4.60;;
18378;SDS011;27025;51.986;5.984;2023-02-28T01:49:51;5.80;;;4.68;;
18378;SDS011;27025;51.986;5.984;2023-02-28T01:52:17;7.25;;;4.80;;
18378;SDS011;27025;51.986;5.984;2023-02-28T01:54:47;7.13;;;4.68;;
18378;SDS011;27025;51.986;5.984;2023-02-28T01:57:16;6.15;;;4.60;;
18378;SDS011;27025;51.986;5.984;2023-02-28T01:59:48;6.35;;;4.72;;
18378;SDS011;27025;51.986;5.984;2023-02-28T02:02:15;6.60;;;4.70;;
18378;SDS011;27025;51.986;5.984;2023-02-28T02:04:45;6.45;;;4.35;;
18378;SDS011;27025;51.986;5.984;2023-02-28T02:07:12;7.95;;;4.70;;
18378;SDS011;27025;51.986;5.984;2023-02-28T02:09:38;6.72;;;4.50;;
18378;SDS011;27025;51.986;5.984;2023-02-28T02:12:08;5.90;;;4.40;;
18378;SDS011;27025;51.986;5.984;2023-02-28T02:14:44;6.85;;;4.82;;
18378;SDS011;27025;51.986;5.984;2023-02-28T02:32:35;7.63;;;5.50;;
18378;SDS011;27025;51.986;5.984;2023-02-28T02:37:41;8.40;;;5.28;;
18378;SDS011;27025;51.986;5.984;2023-02-28T02:42:44;7.63;;;5.53;;
18378;SDS011;27025;51.986;5.984;2023-02-28T02:47:40;9.57;;;5.50;;
18378;SDS011;27025;51.986;5.984;2023-02-28T02:50:08;9.37;;;5.60;;
18378;SDS011;27025;51.986;5.984;2023-02-28T02:52:38;6.70;;;4.90;;
18378;SDS011;27025;51.986;5.984;2023-02-28T02:55:05;8.15;;;5.97;;
18378;SDS011;27025;51.986;5.984;2023-02-28T02:57:34;7.83;;;5.60;;
18378;SDS011;27025;51.986;5.984;2023-02-28T03:00:03;7.27;;;5.47;;
18378;SDS011;27025;51.986;5.984;2023-02-28T03:02:30;9.40;;;6.22;;
18378;SDS011;27025;51.986;5.984;2023-02-28T03:04:59;8.15;;;5.90;;
18378;SDS011;27025;51.986;5.984;2023-02-28T03:07:27;7.37;;;5.87;;
18378;SDS011;27025;51.986;5.984;2023-02-28T03:09:53;7.53;;;5.53;;
18378;SDS011;27025;51.986;5.984;2023-02-28T03:12:19;8.60;;;5.90;;
18378;SDS011;27025;51.986;5.984;2023-02-28T03:20:04;6.63;;;5.90;;
18378;SDS011;27025;51.986;5.984;2023-02-28T03:22:38;7.55;;;6.05;;
18378;SDS011;27025;51.986;5.984;2023-02-28T03:25:24;10.52;;;6.20;;
18378;SDS011;27025;51.986;5.984;2023-02-28T03:27:55;7.40;;;5.90;;
18378;SDS011;27025;51.986;5.984;2023-02-28T03:30:24;6.57;;;5.63;;
18378;SDS011;27025;51.986;5.984;2023-02-28T03:32:59;8.43;;;6.15;;
18378;SDS011;27025;51.986;5.984;2023-02-28T03:35:30;7.57;;;6.13;;
18378;SDS011;27025;51.986;5.984;2023-02-28T03:38:09;9.30;;;6.35;;
18378;SDS011;27025;51.986;5.984;2023-02-28T03:40:39;7.60;;;5.97;;
18378;SDS011;27025;51.986;5.984;2023-02-28T03:43:09;7.47;;;5.47;;
18378;SDS011;27025;51.986;5.984;2023-02-28T03:45:36;5.67;;;5.10;;
18378;SDS011;27025;51.986;5.984;2023-02-28T03:48:14;8.23;;;5.90;;
18378;SDS011;27025;51.986;5.984;2023-02-28T03:50:42;7.70;;;5.70;;
18378;SDS011;27025;51.986;5.984;2023-02-28T03:53:25;7.20;;;5.57;;
18378;SDS011;27025;51.986;5.984;2023-02-28T03:55:54;7.70;;;5.57;;
18378;SDS011;27025;51.986;5.984;2023-02-28T03:58:26;7.40;;;5.63;;
18378;SDS011;27025;51.986;5.984;2023-02-28T04:00:55;6.50;;;4.70;;
18378;SDS011;27025;51.986;5.984;2023-02-28T04:03:22;7.60;;;4.77;;
18378;SDS011;27025;51.986;5.984;2023-02-28T04:05:52;5.40;;;4.17;;
18378;SDS011;27025;51.986;5.984;2023-02-28T04:08:19;6.30;;;4.47;;
18378;SDS011;27025;51.986;5.984;2023-02-28T04:10:47;6.18;;;4.70;;
18378;SDS011;27025;51.986;5.984;2023-02-28T04:13:15;5.97;;;4.50;;
18378;SDS011;27025;51.986;5.984;2023-02-28T04:15:41;5.20;;;4.20;;
18378;SDS011;27025;51.986;5.984;2023-02-28T04:18:08;7.00;;;4.30;;
18378;SDS011;27025;51.986;5.984;2023-02-28T04:20:34;6.97;;;4.20;;
18378;SDS011;27025;51.986;5.984;2023-02-28T04:23:00;5.13;;;4.57;;
18378;SDS011;27025;51.986;5.984;2023-02-28T04:25:25;7.30;;;4.00;;
18378;SDS011;27025;51.986;5.984;2023-02-28T04:27:51;6.07;;;4.55;;
18378;SDS011;27025;51.986;5.984;2023-02-28T04:30:17;5.27;;;4.00;;
18378;SDS011;27025;51.986;5.984;2023-02-28T04:32:43;5.53;;;3.87;;
18378;SDS011;27025;51.986;5.984;2023-02-28T04:35:10;7.27;;;4.10;;
18378;SDS011;27025;51.986;5.984;2023-02-28T04:37:36;6.82;;;5.00;;
18378;SDS011;27025;51.986;5.984;2023-02-28T04:40:02;8.33;;;4.97;;
18378;SDS011;27025;51.986;5.984;2023-02-28T04:42:28;8.97;;;5.33;;
18378;SDS011;27025;51.986;5.984;2023-02-28T04:45:00;15.13;;;6.50;;
18378;SDS011;27025;51.986;5.984;2023-02-28T04:47:26;15.83;;;7.07;;
18378;SDS011;27025;51.986;5.984;2023-02-28T04:49:52;10.67;;;6.43;;
18378;SDS011;27025;51.986;5.984;2023-02-28T04:52:18;11.23;;;6.70;;
18378;SDS011;27025;51.986;5.984;2023-02-28T04:54:44;9.73;;;5.77;;
18378;SDS011;27025;51.986;5.984;2023-02-28T04:57:10;8.10;;;4.40;;
18378;SDS011;27025;51.986;5.984;2023-02-28T04:59:36;5.30;;;4.18;;
18378;SDS011;27025;51.986;5.984;2023-02-28T05:02:03;9.43;;;5.47;;
18378;SDS011;27025;51.986;5.984;2023-02-28T05:04:34;9.90;;;6.30;;
18378;SDS011;27025;51.986;5.984;2023-02-28T05:07:01;9.37;;;6.20;;
18378;SDS011;27025;51.986;5.984;2023-02-28T05:09:28;9.30;;;6.07;;
18378;SDS011;27025;51.986;5.984;2023-02-28T05:11:54;7.90;;;5.30;;
18378;SDS011;27025;51.986;5.984;2023-02-28T05:14:22;6.53;;;4.77;;
18378;SDS011;27025;51.986;5.984;2023-02-28T05:16:48;5.93;;;4.40;;
18378;SDS011;27025;51.986;5.984;2023-02-28T05:19:14;7.00;;;4.47;;
18378;SDS011;27025;51.986;5.984;2023-02-28T05:21:41;5.33;;;3.90;;
18378;SDS011;27025;51.986;5.984;2023-02-28T05:24:09;7.77;;;3.67;;
18378;SDS011;27025;51.986;5.984;2023-02-28T05:26:37;5.25;;;3.90;;
18378;SDS011;27025;51.986;5.984;2023-02-28T05:29:03;5.87;;;3.60;;
18378;SDS011;27025;51.986;5.984;2023-02-28T05:31:30;6.30;;;3.40;;
18378;SDS011;27025;51.986;5.984;2023-02-28T05:33:56;3.83;;;3.10;;
18378;SDS011;27025;51.986;5.984;2023-02-28T05:36:22;5.27;;;3.43;;
18378;SDS011;27025;51.986;5.984;2023-02-28T05:38:48;5.10;;;3.50;;
18378;SDS011;27025;51.986;5.984;2023-02-28T05:41:15;4.40;;;3.47;;
18378;SDS011;27025;51.986;5.984;2023-02-28T05:43:41;5.07;;;3.30;;
18378;SDS011;27025;51.986;5.984;2023-02-28T05:46:08;7.30;;;4.60;;
18378;SDS011;27025;51.986;5.984;2023-02-28T05:48:35;6.43;;;3.70;;
18378;SDS011;27025;51.986;5.984;2023-02-28T05:51:01;7.60;;;4.70;;
18378;SDS011;27025;51.986;5.984;2023-02-28T05:53:27;7.25;;;4.70;;
18378;SDS011;27025;51.986;5.984;2023-02-28T05:55:54;7.90;;;4.47;;
18378;SDS011;27025;51.986;5.984;2023-02-28T05:58:20;8.60;;;5.10;;
18378;SDS011;27025;51.986;5.984;2023-02-28T06:00:48;11.02;;;5.32;;
18378;SDS011;27025;51.986;5.984;2023-02-28T06:03:14;6.00;;;4.43;;
18378;SDS011;27025;51.986;5.984;2023-02-28T06:05:40;6.70;;;4.80;;
18378;SDS011;27025;51.986;5.984;2023-02-28T06:08:06;4.90;;;3.70;;
18378;SDS011;27025;51.986;5.984;2023-02-28T06:10:33;7.45;;;4.43;;
18378;SDS011;27025;51.986;5.984;2023-02-28T06:13:00;6.23;;;3.53;;
18378;SDS011;27025;51.986;5.984;2023-02-28T06:15:27;4.63;;;2.97;;
18378;SDS011;27025;51.986;5.984;2023-02-28T06:17:54;2.90;;;2.63;;
18378;SDS011;27025;51.986;5.984;2023-02-28T06:20:21;3.03;;;2.60;;
18378;SDS011;27025;51.986;5.984;2023-02-28T06:22:47;5.33;;;2.80;;
18378;SDS011;27025;51.986;5.984;2023-02-28T06:25:15;5.13;;;2.93;;
18378;SDS011;27025;51.986;5.984;2023-02-28T06:27:41;3.60;;;3.00;;
18378;SDS011;27025;51.986;5.984;2023-02-28T06:30:08;4.20;;;2.73;;
18378;SDS011;27025;51.986;5.984;2023-02-28T06:32:34;6.43;;;3.20;;
18378;SDS011;27025;51.986;5.984;2023-02-28T06:35:00;5.80;;;3.17;;
18378;SDS011;27025;51.986;5.984;2023-02-28T06:37:26;5.07;;;3.00;;
18378;SDS011;27025;51.986;5.984;2023-02-28T06:39:53;5.90;;;3.20;;
18378;SDS011;27025;51.986;5.984;2023-02-28T06:42:21;6.77;;;3.80;;
18378;SDS011;27025;51.986;5.984;2023-02-28T06:44:49;5.43;;;3.05;;
18378;SDS011;27025;51.986;5.984;2023-02-28T06:47:15;4.43;;;3.07;;
18378;SDS011;27025;51.986;5.984;2023-02-28T06:49:41;4.90;;;2.93;;
18378;SDS011;27025;51.986;5.984;2023-02-28T06:52:10;3.47;;;2.40;;
18378;SDS011;27025;51.986;5.984;2023-02-28T06:54:36;5.17;;;2.90;;
18378;SDS011;27025;51.986;5.984;2023-02-28T06:57:02;5.55;;;3.00;;
18378;SDS011;27025;51.986;5.984;2023-02-28T06:59:28;2.80;;;2.33;;
18378;SDS011;27025;51.986;5.984;2023-02-28T07:01:54;4.93;;;3.27;;
18378;SDS011;27025;51.986;5.984;2023-02-28T07:04:21;4.23;;;2.73;;
18378;SDS011;27025;51.986;5.984;2023-02-28T07:06:47;5.53;;;2.70;;
18378;SDS011;27025;51.986;5.984;2023-02-28T07:09:13;4.43;;;2.60;;
18378;SDS011;27025;51.986;5.984;2023-02-28T07:11:39;5.60;;;2.97;;
18378;SDS011;27025;51.986;5.984;2023-02-28T07:14:07;5.13;;;3.10;;
18378;SDS011;27025;51.986;5.984;2023-02-28T07:16:33;5.70;;;3.30;;
18378;SDS011;27025;51.986;5.984;2023-02-28T07:18:59;3.30;;;2.80;;
18378;SDS011;27025;51.986;5.984;2023-02-28T07:21:25;5.93;;;3.10;;
18378;SDS011;27025;51.986;5.984;2023-02-28T07:23:51;7.03;;;3.17;;
18378;SDS011;27025;51.986;5.984;2023-02-28T07:26:18;4.17;;;3.20;;
18378;SDS011;27025;51.986;5.984;2023-02-28T07:28:45;4.67;;;3.00;;
18378;SDS011;27025;51.986;5.984;2023-02-28T07:31:12;4.13;;;3.30;;
18378;SDS011;27025;51.986;5.984;2023-02-28T07:33:39;7.33;;;3.53;;
18378;SDS011;27025;51.986;5.984;2023-02-28T07:36:06;4.03;;;3.60;;
18378;SDS011;27025;51.986;5.984;2023-02-28T07:38:36;4.82;;;4.07;;
18378;SDS011;27025;51.986;5.984;2023-02-28T07:41:03;5.30;;;3.63;;
18378;SDS011;27025;51.986;5.984;2023-02-28T07:43:29;6.97;;;4.00;;
18378;SDS011;27025;51.986;5.984;2023-02-28T07:45:55;6.20;;;3.90;;
18378;SDS011;27025;51.986;5.984;2023-02-28T07:48:21;7.03;;;3.97;;
18378;SDS011;27025;51.986;5.984;2023-02-28T07:50:57;5.90;;;4.20;;
18378;SDS011;27025;51.986;5.984;2023-02-28T07:53:23;5.50;;;4.07;;
18378;SDS011;27025;51.986;5.984;2023-02-28T07:55:49;5.68;;;4.30;;
18378;SDS011;27025;51.986;5.984;2023-02-28T07:58:15;5.50;;;4.22;;
18378;SDS011;27025;51.986;5.984;2023-02-28T08:00:41;5.32;;;3.65;;
18378;SDS011;27025;51.986;5.984;2023-02-28T08:03:09;5.43;;;3.10;;
18378;SDS011;27025;51.986;5.984;2023-02-28T08:05:40;4.60;;;3.42;;
18378;SDS011;27025;51.986;5.984;2023-02-28T08:08:06;4.10;;;3.00;;
18378;SDS011;27025;51.986;5.984;2023-02-28T08:10:32;4.38;;;3.20;;
18378;SDS011;27025;51.986;5.984;2023-02-28T08:12:58;4.93;;;3.20;;
18378;SDS011;27025;51.986;5.984;2023-02-28T08:15:25;3.40;;;2.75;;
18378;SDS011;27025;51.986;5.984;2023-02-28T08:17:51;3.40;;;3.10;;
18378;SDS011;27025;51.986;5.984;2023-02-28T08:20:17;4.20;;;3.03;;
18378;SDS011;27025;51.986;5.984;2023-02-28T08:22:43;3.60;;;3.00;;
18378;SDS011;27025;51.986;5.984;2023-02-28T08:25:09;3.10;;;2.63;;
18378;SDS011;27025;51.986;5.984;2023-02-28T08:27:35;3.00;;;2.70;;
18378;SDS011;27025;51.986;5.984;2023-02-28T08:30:02;3.93;;;2.87;;
18378;SDS011;27025;51.986;5.984;2023-02-28T08:32:28;3.00;;;2.70;;
18378;SDS011;27025;51.986;5.984;2023-02-28T08:34:54;3.13;;;2.63;;
18378;SDS011;27025;51.986;5.984;2023-02-28T08:37:20;3.33;;;3.00;;
18378;SDS011;27025;51.986;5.984;2023-02-28T08:39:46;3.95;;;2.80;;
18378;SDS011;27025;51.986;5.984;2023-02-28T08:42:12;3.83;;;2.63;;
18378;SDS011;27025;51.986;5.984;2023-02-28T08:44:38;4.20;;;3.00;;
18378;SDS011;27025;51.986;5.984;2023-02-28T08:47:05;4.13;;;3.00;;
18378;SDS011;27025;51.986;5.984;2023-02-28T08:49:31;4.93;;;2.83;;
18378;SDS011;27025;51.986;5.984;2023-02-28T08:51:57;4.47;;;2.83;;
18378;SDS011;27025;51.986;5.984;2023-02-28T08:54:23;3.87;;;2.90;;
18378;SDS011;27025;51.986;5.984;2023-02-28T08:56:49;3.23;;;2.60;;
18378;SDS011;27025;51.986;5.984;2023-02-28T08:59:16;2.53;;;2.20;;
18378;SDS011;27025;51.986;5.984;2023-02-28T09:01:42;2.40;;;2.00;;
18378;SDS011;27025;51.986;5.984;2023-02-28T09:04:08;3.37;;;2.50;;
18378;SDS011;27025;51.986;5.984;2023-02-28T09:06:35;2.30;;;2.00;;
18378;SDS011;27025;51.986;5.984;2023-02-28T09:09:02;3.60;;;2.10;;
18378;SDS011;27025;51.986;5.984;2023-02-28T09:11:30;2.57;;;1.97;;
18378;SDS011;27025;51.986;5.984;2023-02-28T09:13:57;2.43;;;1.87;;
18378;SDS011;27025;51.986;5.984;2023-02-28T09:16:24;2.30;;;2.10;;
18378;SDS011;27025;51.986;5.984;2023-02-28T09:18:50;2.50;;;2.00;;
18378;SDS011;27025;51.986;5.984;2023-02-28T09:21:17;2.20;;;1.70;;
18378;SDS011;27025;51.986;5.984;2023-02-28T09:23:44;2.00;;;1.70;;
18378;SDS011;27025;51.986;5.984;2023-02-28T09:26:17;2.10;;;1.90;;
18378;SDS011;27025;51.986;5.984;2023-02-28T09:28:44;2.33;;;2.13;;
18378;SDS011;27025;51.986;5.984;2023-02-28T09:31:12;2.07;;;1.90;;
18378;SDS011;27025;51.986;5.984;2023-02-28T09:33:38;2.40;;;2.20;;
18378;SDS011;27025;51.986;5.984;2023-02-28T09:36:05;2.30;;;2.10;;
18378;SDS011;27025;51.986;5.984;2023-02-28T09:38:31;3.00;;;2.00;;
18378;SDS011;27025;51.986;5.984;2023-02-28T09:41:01;2.67;;;2.00;;
18378;SDS011;27025;51.986;5.984;2023-02-28T09:43:28;2.70;;;2.20;;
18378;SDS011;27025;51.986;5.984;2023-02-28T09:46:40;2.30;;;2.10;;
18378;SDS011;27025;51.986;5.984;2023-02-28T09:48:46;2.70;;;2.22;;
18378;SDS011;27025;51.986;5.984;2023-02-28T09:51:26;2.30;;;2.10;;
18378;SDS011;27025;51.986;5.984;2023-02-28T09:53:53;2.88;;;2.00;;
18378;SDS011;27025;51.986;5.984;2023-02-28T09:56:53;3.65;;;2.30;;
18378;SDS011;27025;51.986;5.984;2023-02-28T09:59:22;1.80;;;1.63;;
18378;SDS011;27025;51.986;5.984;2023-02-28T10:02:01;6.03;;;2.17;;
18378;SDS011;27025;51.986;5.984;2023-02-28T10:06:55;2.63;;;2.00;;
18378;SDS011;27025;51.986;5.984;2023-02-28T10:09:24;2.75;;;2.08;;
18378;SDS011;27025;51.986;5.984;2023-02-28T10:11:52;3.50;;;1.83;;
18378;SDS011;27025;51.986;5.984;2023-02-28T10:14:22;3.30;;;2.47;;
18378;SDS011;27025;51.986;5.984;2023-02-28T10:17:03;3.27;;;1.70;;
18378;SDS011;27025;51.986;5.984;2023-02-28T10:22:13;1.87;;;1.70;;
18378;SDS011;27025;51.986;5.984;2023-02-28T10:24:42;2.23;;;1.93;;
18378;SDS011;27025;51.986;5.984;2023-02-28T10:27:15;2.57;;;1.97;;
18378;SDS011;27025;51.986;5.984;2023-02-28T10:29:49;2.93;;;1.70;;
18378;SDS011;27025;51.986;5.984;2023-02-28T10:32:20;1.87;;;1.63;;
18378;SDS011;27025;51.986;5.984;2023-02-28T10:37:32;4.83;;;1.80;;
18378;SDS011;27025;51.986;5.984;2023-02-28T10:40:03;2.27;;;1.60;;
18378;SDS011;27025;51.986;5.984;2023-02-28T10:42:31;3.50;;;2.07;;
18378;SDS011;27025;51.986;5.984;2023-02-28T10:47:33;2.43;;;2.00;;
18378;SDS011;27025;51.986;5.984;2023-02-28T10:50:00;2.20;;;2.00;;
18378;SDS011;27025;51.986;5.984;2023-02-28T10:52:36;2.40;;;2.10;;
18378;SDS011;27025;51.986;5.984;2023-02-28T10:58:01;3.00;;;1.90;;
18378;SDS011;27025;51.986;5.984;2023-02-28T11:00:32;2.00;;;1.80;;
18378;SDS011;27025;51.986;5.984;2023-02-28T11:02:58;4.10;;;1.87;;
18378;SDS011;27025;51.986;5.984;2023-02-28T11:05:35;2.47;;;1.90;;
18378;SDS011;27025;51.986;5.984;2023-02-28T11:10:28;2.30;;;1.65;;
18378;SDS011;27025;51.986;5.984;2023-02-28T11:12:57;2.17;;;1.83;;
18378;SDS011;27025;51.986;5.984;2023-02-28T11:15:28;2.00;;;1.80;;
18378;SDS011;27025;51.986;5.984;2023-02-28T11:20:30;2.10;;;1.90;;
18378;SDS011;27025;51.986;5.984;2023-02-28T11:22:58;2.35;;;1.73;;
18378;SDS011;27025;51.986;5.984;2023-02-28T11:25:26;2.13;;;1.90;;
18378;SDS011;27025;51.986;5.984;2023-02-28T11:27:54;2.05;;;1.70;;
18378;SDS011;27025;51.986;5.984;2023-02-28T11:30:24;2.13;;;1.90;;
18378;SDS011;27025;51.986;5.984;2023-02-28T11:32:50;3.10;;;1.90;;
18378;SDS011;27025;51.986;5.984;2023-02-28T11:35:23;1.90;;;1.80;;
18378;SDS011;27025;51.986;5.984;2023-02-28T11:37:49;3.23;;;2.00;;
18378;SDS011;27025;51.986;5.984;2023-02-28T11:40:20;2.10;;;1.80;;
18378;SDS011;27025;51.986;5.984;2023-02-28T11:55:38;3.05;;;2.05;;
18378;SDS011;27025;51.986;5.984;2023-02-28T12:03:27;2.13;;;1.92;;
18378;SDS011;27025;51.986;5.984;2023-02-28T12:16:17;2.80;;;2.30;;
18378;SDS011;27025;51.986;5.984;2023-02-28T12:26:38;3.05;;;2.50;;
18378;SDS011;27025;51.986;5.984;2023-02-28T12:32:01;2.80;;;2.38;;
18378;SDS011;27025;51.986;5.984;2023-02-28T12:37:27;2.90;;;2.60;;
18378;SDS011;27025;51.986;5.984;2023-02-28T12:39:55;3.28;;;2.75;;
18378;SDS011;27025;51.986;5.984;2023-02-28T12:42:27;2.67;;;2.47;;
18378;SDS011;27025;51.986;5.984;2023-02-28T12:45:05;2.40;;;2.20;;
18378;SDS011;27025;51.986;5.984;2023-02-28T12:47:34;3.03;;;2.35;;
18378;SDS011;27025;51.986;5.984;2023-02-28T12:50:02;2.78;;;2.50;;
18378;SDS011;27025;51.986;5.984;2023-02-28T12:55:12;2.17;;;1.97;;
18378;SDS011;27025;51.986;5.984;2023-02-28T12:57:42;2.30;;;2.10;;
18378;SDS011;27025;51.986;5.984;2023-02-28T13:00:13;2.75;;;2.20;;
18378;SDS011;27025;51.986;5.984;2023-02-28T13:10:36;4.20;;;2.00;;
18378;SDS011;27025;51.986;5.984;2023-02-28T13:13:03;2.72;;;2.05;;
18378;SDS011;27025;51.986;5.984;2023-02-28T13:15:29;2.72;;;2.22;;
18378;SDS011;27025;51.986;5.984;2023-02-28T13:18:00;2.25;;;2.05;;
18378;SDS011;27025;51.986;5.984;2023-02-28T13:20:27;3.30;;;2.10;;
18378;SDS011;27025;51.986;5.984;2023-02-28T13:22:55;2.50;;;2.30;;
18378;SDS011;27025;51.986;5.984;2023-02-28T13:27:48;2.60;;;2.40;;
18378;SDS011;27025;51.986;5.984;2023-02-28T13:35:50;2.38;;;2.17;;
18378;SDS011;27025;51.986;5.984;2023-02-28T13:38:36;2.30;;;2.10;;
18378;SDS011;27025;51.986;5.984;2023-02-28T13:46:33;2.23;;;2.03;;
18378;SDS011;27025;51.986;5.984;2023-02-28T13:51:46;2.67;;;2.20;;
18378;SDS011;27025;51.986;5.984;2023-02-28T13:59:43;2.47;;;2.10;;
18378;SDS011;27025;51.986;5.984;2023-02-28T14:05:05;3.05;;;2.50;;
18378;SDS011;27025;51.986;5.984;2023-02-28T14:07:33;2.60;;;2.40;;
18378;SDS011;27025;51.986;5.984;2023-02-28T14:10:04;2.97;;;1.90;;
18378;SDS011;27025;51.986;5.984;2023-02-28T14:18:05;2.45;;;2.22;;
18378;SDS011;27025;51.986;5.984;2023-02-28T14:20:32;3.13;;;2.50;;
18378;SDS011;27025;51.986;5.984;2023-02-28T14:31:29;2.58;;;2.25;;
18378;SDS011;27025;51.986;5.984;2023-02-28T14:36:35;2.92;;;2.33;;
18378;SDS011;27025;51.986;5.984;2023-02-28T14:39:21;2.80;;;2.20;;
18378;SDS011;27025;51.986;5.984;2023-02-28T14:41:48;3.15;;;2.33;;
18378;SDS011;27025;51.986;5.984;2023-02-28T14:46:41;2.80;;;2.30;;
18378;SDS011;27025;51.986;5.984;2023-02-28T14:49:12;2.55;;;2.35;;
18378;SDS011;27025;51.986;5.984;2023-02-28T14:51:38;2.42;;;2.22;;
18378;SDS011;27025;51.986;5.984;2023-02-28T14:54:04;2.33;;;2.10;;
18378;SDS011;27025;51.986;5.984;2023-02-28T14:56:35;3.87;;;2.00;;
18378;SDS011;27025;51.986;5.984;2023-02-28T14:59:02;2.90;;;2.23;;
18378;SDS011;27025;51.986;5.984;2023-02-28T15:01:28;2.30;;;2.00;;
18378;SDS011;27025;51.986;5.984;2023-02-28T15:03:59;2.23;;;2.03;;
18378;SDS011;27025;51.986;5.984;2023-02-28T15:06:26;3.97;;;2.20;;
18378;SDS011;27025;51.986;5.984;2023-02-28T15:11:37;2.93;;;1.90;;
18378;SDS011;27025;51.986;5.984;2023-02-28T15:14:05;3.03;;;2.00;;
18378;SDS011;27025;51.986;5.984;2023-02-28T15:16:32;3.23;;;1.87;;
18378;SDS011;27025;51.986;5.984;2023-02-28T15:18:59;2.30;;;2.10;;
18378;SDS011;27025;51.986;5.984;2023-02-28T15:23:56;2.90;;;2.13;;
18378;SDS011;27025;51.986;5.984;2023-02-28T15:26:24;3.03;;;2.13;;
18378;SDS011;27025;51.986;5.984;2023-02-28T15:28:52;2.20;;;1.90;;
18378;SDS011;27025;51.986;5.984;2023-02-28T15:31:25;2.43;;;1.83;;
18378;SDS011;27025;51.986;5.984;2023-02-28T15:33:55;2.43;;;2.23;;
18378;SDS011;27025;51.986;5.984;2023-02-28T15:36:24;3.33;;;2.10;;
18378;SDS011;27025;51.986;5.984;2023-02-28T15:38:52;2.40;;;2.13;;
18378;SDS011;27025;51.986;5.984;2023-02-28T15:41:35;3.00;;;2.20;;
18378;SDS011;27025;51.986;5.984;2023-02-28T15:44:17;4.00;;;2.23;;
18378;SDS011;27025;51.986;5.984;2023-02-28T15:46:58;3.30;;;2.20;;
18378;SDS011;27025;51.986;5.984;2023-02-28T15:49:26;3.00;;;2.10;;
18378;SDS011;27025;51.986;5.984;2023-02-28T15:51:53;3.30;;;2.53;;
18378;SDS011;27025;51.986;5.984;2023-02-28T15:54:22;2.63;;;2.43;;
18378;SDS011;27025;51.986;5.984;2023-02-28T15:56:50;3.50;;;2.53;;
18378;SDS011;27025;51.986;5.984;2023-02-28T15:59:18;2.47;;;2.27;;
18378;SDS011;27025;51.986;5.984;2023-02-28T16:01:45;4.13;;;2.50;;
18378;SDS011;27025;51.986;5.984;2023-02-28T16:06:38;2.90;;;2.10;;
18378;SDS011;27025;51.986;5.984;2023-02-28T16:09:08;2.37;;;2.17;;
18378;SDS011;27025;51.986;5.984;2023-02-28T16:11:35;2.40;;;2.20;;
18378;SDS011;27025;51.986;5.984;2023-02-28T16:14:02;2.93;;;2.17;;
18378;SDS011;27025;51.986;5.984;2023-02-28T16:16:28;2.40;;;2.20;;
18378;SDS011;27025;51.986;5.984;2023-02-28T16:18:55;4.67;;;2.67;;
18378;SDS011;27025;51.986;5.984;2023-02-28T16:21:21;3.70;;;2.33;;
18378;SDS011;27025;51.986;5.984;2023-02-28T16:23:47;2.43;;;2.17;;
18378;SDS011;27025;51.986;5.984;2023-02-28T16:26:21;3.40;;;2.60;;
18378;SDS011;27025;51.986;5.984;2023-02-28T16:28:48;2.67;;;2.47;;
18378;SDS011;27025;51.986;5.984;2023-02-28T16:31:14;3.77;;;2.50;;
18378;SDS011;27025;51.986;5.984;2023-02-28T16:33:41;3.23;;;2.73;;
18378;SDS011;27025;51.986;5.984;2023-02-28T16:36:18;5.83;;;2.70;;
18378;SDS011;27025;51.986;5.984;2023-02-28T16:38:45;5.63;;;3.00;;
18378;SDS011;27025;51.986;5.984;2023-02-28T16:41:12;3.30;;;3.00;;
18378;SDS011;27025;51.986;5.984;2023-02-28T16:43:41;3.50;;;2.43;;
18378;SDS011;27025;51.986;5.984;2023-02-28T16:46:08;4.13;;;2.50;;
18378;SDS011;27025;51.986;5.984;2023-02-28T16:48:35;3.90;;;3.00;;
18378;SDS011;27025;51.986;5.984;2023-02-28T16:51:02;3.40;;;2.93;;
18378;SDS011;27025;51.986;5.984;2023-02-28T16:53:29;5.00;;;2.80;;
18378;SDS011;27025;51.986;5.984;2023-02-28T16:55:55;3.00;;;2.67;;
18378;SDS011;27025;51.986;5.984;2023-02-28T16:58:21;2.93;;;2.60;;
18378;SDS011;27025;51.986;5.984;2023-02-28T17:00:50;3.20;;;2.90;;
18378;SDS011;27025;51.986;5.984;2023-02-28T17:03:24;3.20;;;2.90;;
18378;SDS011;27025;51.986;5.984;2023-02-28T17:05:50;3.83;;;2.87;;
18378;SDS011;27025;51.986;5.984;2023-02-28T17:08:16;3.07;;;2.70;;
18378;SDS011;27025;51.986;5.984;2023-02-28T17:10:43;3.30;;;3.00;;
18378;SDS011;27025;51.986;5.984;2023-02-28T17:13:09;5.80;;;3.63;;
18378;SDS011;27025;51.986;5.984;2023-02-28T17:15:35;5.00;;;4.40;;
18378;SDS011;27025;51.986;5.984;2023-02-28T17:18:01;5.35;;;4.57;;
18378;SDS011;27025;51.986;5.984;2023-02-28T17:20:28;5.03;;;4.25;;
18378;SDS011;27025;51.986;5.984;2023-02-28T17:22:54;5.25;;;3.90;;
18378;SDS011;27025;51.986;5.984;2023-02-28T17:25:20;4.88;;;3.55;;